Time;durP1;ratioP1;P1;durP2;ratioP2;P2;SDS_P1;SDS_P2;PMS_P1;PMS_P2;Temp;Humidity;BMP_temperature;BMP_pressure;BME280_temperature;BME280_humidity;BME280_pressure;Samples;Min_cycle;Max_cycle;Signal;HPM_P1;HPM_P2
2021/06/10 00:01:47;;;;;;;12.13;7.07;;;;;;;;;;4993175;28;20429;-67
2021/06/10 00:04:13;;;;;;;7.90;7.10;;;;;;;;;;4994296;28;20421;-65
2021/06/10 00:06:39;;;;;;;8.13;7.23;;;;;;;;;;4993270;28;20464;-65
2021/06/10 00:09:06;;;;;;;9.17;6.47;;;;;;;;;;4994457;28;20797;-67
2021/06/10 00:11:32;;;;;;;8.50;7.00;;;;;;;;;;4989010;28;20429;-65
2021/06/10 00:13:58;;;;;;;9.53;7.97;;;;;;;;;;4974897;28;20421;-64
2021/06/10 00:16:24;;;;;;;12.80;8.80;;;;;;;;;;4988139;28;20455;-65
2021/06/10 00:18:51;;;;;;;8.90;7.23;;;;;;;;;;4994421;28;20408;-65
2021/06/10 00:21:18;;;;;;;11.13;8.40;;;;;;;;;;4990734;28;20436;-65
2021/06/10 00:23:44;;;;;;;10.37;8.17;;;;;;;;;;4994411;28;20496;-65
2021/06/10 00:26:10;;;;;;;10.53;8.20;;;;;;;;;;4981739;28;20468;-65
2021/06/10 00:28:36;;;;;;;13.70;8.17;;;;;;;;;;4974921;28;20755;-65
2021/06/10 00:31:03;;;;;;;8.03;7.17;;;;;;;;;;4974714;28;20437;-64
2021/06/10 00:33:29;;;;;;;9.80;7.60;;;;;;;;;;4974617;28;20468;-65
2021/06/10 00:35:55;;;;;;;12.43;8.57;;;;;;;;;;4974655;28;20452;-65
2021/06/10 00:38:21;;;;;;;9.33;7.93;;;;;;;;;;4974276;28;20496;-64
2021/06/10 00:40:47;;;;;;;10.60;7.17;;;;;;;;;;4980851;28;20490;-64
2021/06/10 00:43:13;;;;;;;9.50;8.27;;;;;;;;;;4992902;28;20436;-63
2021/06/10 00:45:40;;;;;;;9.87;7.97;;;;;;;;;;4992978;28;20460;-63
2021/06/10 00:48:06;;;;;;;10.63;8.57;;;;;;;;;;4993804;28;20402;-65
2021/06/10 00:50:38;;;;;;;11.93;8.53;;;;;;;;;;4992390;28;20429;-65
2021/06/10 00:53:04;;;;;;;9.50;7.70;;;;;;;;;;4994023;28;20896;-65
2021/06/10 00:55:30;;;;;;;11.53;9.50;;;;;;;;;;4989910;28;20449;-65
2021/06/10 00:57:56;;;;;;;15.70;9.40;;;;;;;;;;4993684;28;20405;-64
2021/06/10 01:00:23;;;;;;;10.87;9.37;;;;;;;;;;4992500;28;20483;-65
2021/06/10 01:02:49;;;;;;;10.27;9.07;;;;;;;;;;4993568;28;20415;-64
2021/06/10 01:05:15;;;;;;;12.37;9.30;;;;;;;;;;4992416;28;21202;-66
2021/06/10 01:07:44;;;;;;;12.83;9.70;;;;;;;;;;4993500;28;20405;-65
2021/06/10 01:10:16;;;;;;;12.30;9.53;;;;;;;;;;4993481;28;20500;-64
2021/06/10 01:12:53;;;;;;;13.67;9.73;;;;;;;;;;4992347;28;20444;-65
2021/06/10 01:15:21;;;;;;;11.70;9.73;;;;;;;;;;4991544;28;20853;-65
2021/06/10 01:17:48;;;;;;;10.67;8.57;;;;;;;;;;4975136;28;20429;-66
2021/06/10 01:20:16;;;;;;;11.37;9.03;;;;;;;;;;4974208;28;20428;-65
2021/06/10 01:22:52;;;;;;;12.53;9.47;;;;;;;;;;4990576;28;20436;-65
2021/06/10 01:25:38;;;;;;;9.93;8.90;;;;;;;;;;4993787;28;20495;-65
2021/06/10 01:28:06;;;;;;;9.97;8.97;;;;;;;;;;4992959;28;20447;-64
2021/06/10 01:30:34;;;;;;;13.93;10.80;;;;;;;;;;4993565;28;20405;-64
2021/06/10 01:33:03;;;;;;;11.80;9.70;;;;;;;;;;4973953;28;20436;-65
2021/06/10 01:35:35;;;;;;;12.30;9.97;;;;;;;;;;4973935;28;20464;-64
2021/06/10 01:38:01;;;;;;;12.33;11.03;;;;;;;;;;4990503;28;20495;-64
2021/06/10 01:40:28;;;;;;;14.23;11.03;;;;;;;;;;4988845;28;20421;-64
2021/06/10 01:42:55;;;;;;;16.00;11.70;;;;;;;;;;4974021;28;20425;-64
2021/06/10 01:45:22;;;;;;;14.70;11.63;;;;;;;;;;4973946;28;20469;-64
2021/06/10 01:47:48;;;;;;;13.30;10.87;;;;;;;;;;4987937;28;20499;-63
2021/06/10 01:50:16;;;;;;;12.57;10.43;;;;;;;;;;4993278;28;20420;-64
2021/06/10 01:52:43;;;;;;;12.07;10.87;;;;;;;;;;4991908;28;20507;-64
2021/06/10 01:55:11;;;;;;;14.97;12.33;;;;;;;;;;4992944;28;20840;-63
2021/06/10 01:57:38;;;;;;;12.90;11.20;;;;;;;;;;4992094;28;20828;-63
2021/06/10 02:00:08;;;;;;;12.80;10.87;;;;;;;;;;4993236;28;20774;-63
2021/06/10 02:02:35;;;;;;;17.47;11.47;;;;;;;;;;4980848;28;20425;-63
2021/06/10 02:05:02;;;;;;;17.60;11.50;;;;;;;;;;4977083;28;20532;-64
2021/06/10 02:07:28;;;;;;;13.50;11.33;;;;;;;;;;4989851;28;20439;-63
2021/06/10 02:09:54;;;;;;;13.73;10.50;;;;;;;;;;4996681;28;20412;-64
2021/06/10 02:12:20;;;;;;;18.53;14.13;;;;;;;;;;4984188;28;20437;-64
2021/06/10 02:14:46;;;;;;;18.23;13.00;;;;;;;;;;4989750;28;20932;-64
2021/06/10 02:17:12;;;;;;;16.20;13.07;;;;;;;;;;4985596;28;20778;-64
2021/06/10 02:19:38;;;;;;;13.33;11.27;;;;;;;;;;4977180;28;20412;-64
2021/06/10 02:22:05;;;;;;;14.03;11.37;;;;;;;;;;4985752;28;20444;-64
2021/06/10 02:24:31;;;;;;;14.10;11.90;;;;;;;;;;4996361;28;20417;-64
2021/06/10 02:26:57;;;;;;;13.60;11.17;;;;;;;;;;4995445;28;20444;-64
2021/06/10 02:29:24;;;;;;;14.43;11.23;;;;;;;;;;4996230;28;20470;-64
2021/06/10 02:31:50;;;;;;;16.70;12.97;;;;;;;;;;4988872;28;20430;-63
2021/06/10 02:34:16;;;;;;;15.17;11.93;;;;;;;;;;4976923;28;20405;-64
2021/06/10 02:36:45;;;;;;;13.27;11.30;;;;;;;;;;4981574;28;20448;-65
2021/06/10 02:39:12;;;;;;;14.57;12.20;;;;;;;;;;4996052;28;20470;-64
2021/06/10 02:41:40;;;;;;;14.73;12.93;;;;;;;;;;4995045;28;20431;-62
2021/06/10 02:44:07;;;;;;;15.13;11.60;;;;;;;;;;4995830;28;20413;-64
2021/06/10 02:46:34;;;;;;;16.30;12.80;;;;;;;;;;4991177;28;20469;-64
2021/06/10 02:49:01;;;;;;;16.70;13.23;;;;;;;;;;4976417;28;20405;-64
2021/06/10 02:51:28;;;;;;;15.10;11.70;;;;;;;;;;4979219;28;20432;-64
2021/06/10 02:53:55;;;;;;;17.40;12.20;;;;;;;;;;4995783;28;20913;-64
2021/06/10 02:56:22;;;;;;;15.37;12.20;;;;;;;;;;4993362;28;20447;-64
2021/06/10 02:58:48;;;;;;;18.13;12.87;;;;;;;;;;4976475;28;20434;-64
2021/06/10 03:01:15;;;;;;;15.53;12.53;;;;;;;;;;4976229;28;20451;-64
2021/06/10 03:03:42;;;;;;;15.37;12.40;;;;;;;;;;4976168;28;20426;-65
2021/06/10 03:06:08;;;;;;;14.13;11.23;;;;;;;;;;4975790;28;20626;-64
2021/06/10 03:08:34;;;;;;;15.20;12.10;;;;;;;;;;4976256;28;20993;-65
2021/06/10 03:11:02;;;;;;;14.87;11.83;;;;;;;;;;4976523;28;20398;-64
2021/06/10 03:44:03;;;;;;;17.00;11.83;;;;;;;;;;4994334;28;20416;-64
2021/06/10 03:46:29;;;;;;;15.80;10.50;;;;;;;;;;4995137;28;20804;-65
2021/06/10 03:48:55;;;;;;;11.87;10.20;;;;;;;;;;4993953;28;20416;-64
2021/06/10 03:51:22;;;;;;;12.50;10.87;;;;;;;;;;4993699;28;20401;-64
2021/06/10 03:53:48;;;;;;;14.00;10.90;;;;;;;;;;4992465;28;20432;-64
2021/06/10 03:56:14;;;;;;;12.00;10.47;;;;;;;;;;4994533;28;20937;-65
2021/06/10 03:58:41;;;;;;;10.90;9.20;;;;;;;;;;4982276;28;20457;-64
2021/06/10 04:01:07;;;;;;;11.40;9.30;;;;;;;;;;4975506;28;20437;-64
2021/06/10 04:03:33;;;;;;;11.50;9.00;;;;;;;;;;4986820;28;20475;-63
2021/06/10 04:06:00;;;;;;;11.67;8.87;;;;;;;;;;4994405;28;20874;-64
2021/06/10 04:08:26;;;;;;;10.30;8.60;;;;;;;;;;4984626;28;20844;-63
2021/06/10 04:10:52;;;;;;;11.50;9.90;;;;;;;;;;4975004;28;20437;-63
2021/06/10 04:13:18;;;;;;;11.77;9.03;;;;;;;;;;4982895;28;20471;-64
2021/06/10 04:15:44;;;;;;;12.73;9.30;;;;;;;;;;4993078;28;20474;-63
2021/06/10 04:18:17;;;;;;;11.40;7.77;;;;;;;;;;4993001;28;20523;-63
2021/06/10 04:20:43;;;;;;;9.50;8.50;;;;;;;;;;4994530;28;20387;-63
2021/06/10 04:23:09;;;;;;;10.40;7.90;;;;;;;;;;4987242;28;20484;-63
2021/06/10 04:25:35;;;;;;;10.50;8.47;;;;;;;;;;4974673;28;20831;-64
2021/06/10 04:28:01;;;;;;;10.10;9.00;;;;;;;;;;4974594;28;20425;-63
2021/06/10 04:30:27;;;;;;;9.33;8.33;;;;;;;;;;4974668;28;20492;-63
2021/06/10 04:32:53;;;;;;;11.90;8.93;;;;;;;;;;4974657;28;20460;-63
2021/06/10 04:35:19;;;;;;;9.97;7.80;;;;;;;;;;4974909;28;20816;-64
2021/06/10 04:37:45;;;;;;;12.47;8.83;;;;;;;;;;4977267;28;20470;-63
2021/06/10 04:40:12;;;;;;;10.40;8.50;;;;;;;;;;4993921;28;20456;-63
2021/06/10 04:42:38;;;;;;;8.53;7.63;;;;;;;;;;4983222;28;20448;-64
2021/06/10 04:45:04;;;;;;;9.03;7.80;;;;;;;;;;4993745;28;20932;-64
2021/06/10 04:47:30;;;;;;;9.17;8.20;;;;;;;;;;4993183;28;20949;-63
2021/06/10 04:49:56;;;;;;;9.23;7.97;;;;;;;;;;4974674;28;20461;-65
2021/06/10 04:52:22;;;;;;;8.70;7.00;;;;;;;;;;4980394;28;20450;-65
2021/06/10 04:54:48;;;;;;;9.60;7.90;;;;;;;;;;4993179;28;20852;-65
2021/06/10 04:57:14;;;;;;;9.00;7.10;;;;;;;;;;4992810;28;20929;-65
2021/06/10 04:59:40;;;;;;;8.30;7.10;;;;;;;;;;4994001;28;20447;-65
2021/06/10 05:02:06;;;;;;;8.87;7.97;;;;;;;;;;4992902;28;20431;-65
2021/06/10 05:04:32;;;;;;;8.60;7.70;;;;;;;;;;4993492;28;20585;-66
2021/06/10 05:06:59;;;;;;;11.10;7.57;;;;;;;;;;4992523;28;20546;-65
2021/06/10 05:09:25;;;;;;;12.50;7.37;;;;;;;;;;4993533;28;20404;-65
2021/06/10 05:11:51;;;;;;;9.33;7.87;;;;;;;;;;4992714;28;20722;-64
2021/06/10 05:14:18;;;;;;;10.27;7.80;;;;;;;;;;4993692;28;20416;-64
2021/06/10 05:16:47;;;;;;;8.57;7.33;;;;;;;;;;4992510;28;20444;-64
2021/06/10 05:19:13;;;;;;;11.13;7.50;;;;;;;;;;4993730;28;20432;-66
2021/06/10 05:21:39;;;;;;;10.80;7.97;;;;;;;;;;4993241;28;20409;-64
2021/06/10 05:24:08;;;;;;;14.10;8.20;;;;;;;;;;4991895;28;20415;-64
2021/06/10 05:26:35;;;;;;;10.47;8.20;;;;;;;;;;4993151;28;20464;-64
2021/06/10 05:29:01;;;;;;;8.63;7.10;;;;;;;;;;4992373;28;20456;-64
2021/06/10 05:31:27;;;;;;;10.33;8.43;;;;;;;;;;4993420;28;20419;-64
2021/06/10 05:33:53;;;;;;;9.03;7.63;;;;;;;;;;4992312;28;20559;-64
2021/06/10 05:36:19;;;;;;;9.40;6.80;;;;;;;;;;4993964;28;20503;-64
2021/06/10 05:38:45;;;;;;;10.33;7.33;;;;;;;;;;4995816;28;20460;-64
2021/06/10 05:41:11;;;;;;;9.90;7.10;;;;;;;;;;4997532;28;20408;-64
2021/06/10 05:43:37;;;;;;;9.20;8.20;;;;;;;;;;4996357;28;20802;-65
2021/06/10 05:46:04;;;;;;;9.30;7.40;;;;;;;;;;4997076;28;20967;-65
2021/06/10 05:48:30;;;;;;;8.30;7.10;;;;;;;;;;4982923;28;20425;-64
2021/06/10 05:50:56;;;;;;;11.83;8.00;;;;;;;;;;4977963;28;20435;-65
2021/06/10 05:53:24;;;;;;;11.37;8.20;;;;;;;;;;4989592;28;20436;-65
2021/06/10 05:55:50;;;;;;;8.80;7.90;;;;;;;;;;4997702;28;20437;-65
2021/06/10 05:58:16;;;;;;;16.73;8.23;;;;;;;;;;4995949;28;20522;-65
2021/06/10 06:00:42;;;;;;;9.20;7.83;;;;;;;;;;4997025;28;20409;-64
2021/06/10 06:03:09;;;;;;;8.70;6.83;;;;;;;;;;4995993;28;20436;-65
2021/06/10 06:05:35;;;;;;;10.60;7.50;;;;;;;;;;4996722;28;20562;-65
2021/06/10 06:08:01;;;;;;;10.43;8.73;;;;;;;;;;4984361;28;20433;-64
2021/06/10 06:10:28;;;;;;;8.70;6.80;;;;;;;;;;4977208;28;20831;-65
2021/06/10 06:12:56;;;;;;;11.20;8.80;;;;;;;;;;4986099;28;20455;-65
2021/06/10 06:15:23;;;;;;;9.77;6.93;;;;;;;;;;4996833;28;20424;-65
2021/06/10 06:17:49;;;;;;;8.67;7.10;;;;;;;;;;4994461;28;20428;-65
2021/06/10 06:20:15;;;;;;;9.07;7.50;;;;;;;;;;4996482;28;20464;-65
2021/06/10 06:22:44;;;;;;;11.43;8.83;;;;;;;;;;4995529;28;20504;-65
2021/06/10 06:25:11;;;;;;;7.83;6.93;;;;;;;;;;4996315;28;20427;-64
2021/06/10 06:27:37;;;;;;;7.23;6.53;;;;;;;;;;4989539;28;20429;-65
2021/06/10 06:30:07;;;;;;;11.17;8.10;;;;;;;;;;4976975;28;20397;-65
2021/06/10 06:32:35;;;;;;;7.97;6.87;;;;;;;;;;4976884;28;20425;-65
2021/06/10 06:35:01;;;;;;;9.13;8.13;;;;;;;;;;4976658;28;20432;-65
2021/06/10 06:37:27;;;;;;;8.90;7.97;;;;;;;;;;4981114;28;20479;-65
2021/06/10 06:39:53;;;;;;;11.90;7.33;;;;;;;;;;4996074;28;20416;-65
2021/06/10 06:42:19;;;;;;;8.30;7.37;;;;;;;;;;4995223;28;20452;-64
2021/06/10 06:44:45;;;;;;;9.63;8.30;;;;;;;;;;4993978;28;20417;-64
2021/06/10 06:47:11;;;;;;;9.40;7.70;;;;;;;;;;4994374;28;20801;-64
2021/06/10 06:49:37;;;;;;;11.70;9.53;;;;;;;;;;4993833;28;20445;-64
2021/06/10 06:52:03;;;;;;;10.70;8.30;;;;;;;;;;4994748;28;20393;-63
2021/06/10 06:54:29;;;;;;;11.00;6.90;;;;;;;;;;4995371;28;20417;-63
2021/06/10 06:56:55;;;;;;;11.33;9.37;;;;;;;;;;4994204;28;20760;-67
2021/06/10 06:59:21;;;;;;;9.30;7.17;;;;;;;;;;4990972;28;20844;-67
2021/06/10 07:01:48;;;;;;;10.30;7.73;;;;;;;;;;4992186;28;20438;-66
2021/06/10 07:04:14;;;;;;;13.20;8.57;;;;;;;;;;4988182;28;20431;-66
2021/06/10 07:06:40;;;;;;;8.63;7.73;;;;;;;;;;4994636;28;20548;-65
2021/06/10 07:09:06;;;;;;;10.50;8.57;;;;;;;;;;4992785;28;20475;-65
2021/06/10 07:11:36;;;;;;;11.83;8.40;;;;;;;;;;4988019;28;20417;-66
2021/06/10 07:14:02;;;;;;;9.23;7.60;;;;;;;;;;4991919;28;20420;-67
2021/06/10 07:16:28;;;;;;;9.63;8.10;;;;;;;;;;4991764;28;20452;-66
2021/06/10 07:18:54;;;;;;;9.47;7.80;;;;;;;;;;4995905;28;20901;-66
2021/06/10 07:21:21;;;;;;;11.57;10.33;;;;;;;;;;4990372;28;20495;-66
2021/06/10 07:23:47;;;;;;;10.67;8.33;;;;;;;;;;4992681;28;20427;-67
2021/06/10 07:26:13;;;;;;;10.23;9.13;;;;;;;;;;4986156;28;20539;-66
2021/06/10 07:28:39;;;;;;;10.20;8.50;;;;;;;;;;4990526;28;20421;-66
2021/06/10 07:31:05;;;;;;;12.00;8.30;;;;;;;;;;4992490;28;20485;-65
2021/06/10 07:33:31;;;;;;;10.50;8.70;;;;;;;;;;4993794;28;20492;-68
2021/06/10 07:35:57;;;;;;;10.50;8.73;;;;;;;;;;4993215;28;20543;-67
2021/06/10 07:38:23;;;;;;;9.23;8.23;;;;;;;;;;4990525;28;20420;-65
2021/06/10 07:40:49;;;;;;;8.90;6.90;;;;;;;;;;4992822;28;20532;-66
2021/06/10 07:43:16;;;;;;;8.37;7.40;;;;;;;;;;4993010;28;20786;-67
2021/06/10 07:45:42;;;;;;;13.30;8.20;;;;;;;;;;4991703;28;20459;-68
2021/06/10 07:48:08;;;;;;;11.00;7.93;;;;;;;;;;4993436;28;20478;-68
2021/06/10 07:50:35;;;;;;;9.90;8.00;;;;;;;;;;4989987;28;20428;-68
2021/06/10 07:53:01;;;;;;;11.53;8.53;;;;;;;;;;4991364;28;20910;-69
2021/06/10 07:55:27;;;;;;;9.53;7.70;;;;;;;;;;4988092;28;20972;-67
2021/06/10 07:57:55;;;;;;;10.67;8.60;;;;;;;;;;4989443;28;20495;-67
2021/06/10 08:00:21;;;;;;;9.17;8.10;;;;;;;;;;4993408;28;20425;-69
2021/06/10 08:02:48;;;;;;;10.87;8.57;;;;;;;;;;4987558;28;20515;-65
2021/06/10 08:05:14;;;;;;;10.70;9.03;;;;;;;;;;4988280;28;20453;-68
2021/06/10 08:07:44;;;;;;;9.77;8.13;;;;;;;;;;4993089;28;20428;-67
2021/06/10 08:10:14;;;;;;;10.63;8.57;;;;;;;;;;4987890;28;20468;-66
2021/06/10 08:12:40;;;;;;;10.83;8.00;;;;;;;;;;4988056;28;20502;-67
2021/06/10 08:15:06;;;;;;;7.80;7.00;;;;;;;;;;4989043;28;20445;-64
2021/06/10 08:17:35;;;;;;;10.90;8.33;;;;;;;;;;4989265;28;20490;-65
2021/06/10 08:20:01;;;;;;;9.30;8.30;;;;;;;;;;4991433;28;20436;-68
2021/06/10 08:22:27;;;;;;;9.60;7.90;;;;;;;;;;4988913;28;20924;-68
2021/06/10 08:24:53;;;;;;;9.60;8.60;;;;;;;;;;4992550;28;20453;-66
2021/06/10 08:27:19;;;;;;;10.47;8.43;;;;;;;;;;4987885;28;20452;-64
2021/06/10 08:29:45;;;;;;;8.90;7.60;;;;;;;;;;4983707;28;20575;-64
2021/06/10 08:32:11;;;;;;;8.93;7.87;;;;;;;;;;4986069;28;20449;-65
2021/06/10 08:34:37;;;;;;;9.20;8.20;;;;;;;;;;4991020;28;20424;-63
2021/06/10 08:37:03;;;;;;;9.23;7.80;;;;;;;;;;4990768;28;20424;-66
2021/06/10 08:39:30;;;;;;;11.73;8.50;;;;;;;;;;5002459;28;20428;-67
2021/06/10 08:41:56;;;;;;;10.67;8.47;;;;;;;;;;4993656;28;20439;-65
2021/06/10 08:44:23;;;;;;;8.90;7.90;;;;;;;;;;4990258;28;20429;-64
2021/06/10 08:46:50;;;;;;;9.97;8.07;;;;;;;;;;4992060;28;20470;-66
2021/06/10 08:49:16;;;;;;;11.03;6.97;;;;;;;;;;4989653;28;20491;-68
2021/06/10 08:51:42;;;;;;;8.07;7.23;;;;;;;;;;4989307;28;21015;-69
2021/06/10 08:54:09;;;;;;;8.20;7.00;;;;;;;;;;4987197;28;20513;-68
2021/06/10 08:56:37;;;;;;;9.20;7.43;;;;;;;;;;4991010;28;20466;-68
2021/06/10 08:59:03;;;;;;;7.33;6.63;;;;;;;;;;4987373;28;20425;-68
2021/06/10 09:01:31;;;;;;;11.87;8.80;;;;;;;;;;4993617;28;20422;-69
2021/06/10 09:03:57;;;;;;;10.73;8.63;;;;;;;;;;4991467;28;20420;-69
2021/06/10 09:06:23;;;;;;;13.57;8.60;;;;;;;;;;4992143;28;20467;-67
2021/06/10 09:08:50;;;;;;;10.80;7.07;;;;;;;;;;4985298;28;20460;-67
2021/06/10 09:11:18;;;;;;;10.13;8.00;;;;;;;;;;4982772;28;20850;-70
2021/06/10 09:13:44;;;;;;;10.90;9.80;;;;;;;;;;4991270;28;20983;-69
2021/06/10 09:16:37;;;;;;;7.70;6.90;;;;;;;;;;4988415;28;20456;-69
2021/06/10 09:19:04;;;;;;;7.97;7.20;;;;;;;;;;4983831;28;20936;-69
2021/06/10 09:21:32;;;;;;;8.60;7.70;;;;;;;;;;4985723;28;20436;-67
2021/06/10 09:24:19;;;;;;;9.20;6.80;;;;;;;;;;4994514;28;20424;-69
2021/06/10 09:26:47;;;;;;;9.50;7.73;;;;;;;;;;4985722;28;20467;-68
2021/06/10 09:29:13;;;;;;;7.43;6.63;;;;;;;;;;4992355;28;20437;-70
2021/06/10 09:31:41;;;;;;;7.90;7.10;;;;;;;;;;4992993;28;20424;-68
2021/06/10 09:34:09;;;;;;;8.70;7.50;;;;;;;;;;4990229;28;20420;-69
2021/06/10 09:36:47;;;;;;;7.70;6.77;;;;;;;;;;4983457;28;20959;-71
2021/06/10 09:39:15;;;;;;;8.30;6.97;;;;;;;;;;4991308;28;20435;-74
2021/06/10 09:42:00;;;;;;;7.47;5.77;;;;;;;;;;4988904;28;20447;-69
2021/06/10 09:44:38;;;;;;;7.50;6.80;;;;;;;;;;4991352;28;20522;-71
2021/06/10 09:47:05;;;;;;;6.90;6.07;;;;;;;;;;4990743;28;20448;-71
2021/06/10 09:49:31;;;;;;;8.00;7.03;;;;;;;;;;4988735;28;20798;-69
2021/06/10 09:51:57;;;;;;;9.27;7.63;;;;;;;;;;4990130;28;20485;-70
2021/06/10 09:54:43;;;;;;;9.97;5.67;;;;;;;;;;4985633;28;20420;-70
2021/06/10 09:57:11;;;;;;;9.00;7.53;;;;;;;;;;4991107;28;20429;-69
2021/06/10 09:59:48;;;;;;;7.27;6.57;;;;;;;;;;4990709;28;20494;-68
2021/06/10 10:02:23;;;;;;;7.37;6.40;;;;;;;;;;4990673;28;20408;-68
2021/06/10 10:05:00;;;;;;;6.00;5.17;;;;;;;;;;4991099;28;20512;-70
2021/06/10 10:07:30;;;;;;;6.80;5.77;;;;;;;;;;4989640;28;20598;-71
2021/06/10 10:09:57;;;;;;;6.50;5.90;;;;;;;;;;4988473;28;20989;-70
2021/06/10 10:12:25;;;;;;;5.90;5.30;;;;;;;;;;4988155;28;20511;-70
2021/06/10 10:14:51;;;;;;;7.53;5.90;;;;;;;;;;4990190;28;20524;-70
2021/06/10 10:17:17;;;;;;;7.60;5.60;;;;;;;;;;4991789;28;20499;-70
2021/06/10 10:19:43;;;;;;;7.83;5.60;;;;;;;;;;4991164;28;20428;-73
2021/06/10 10:22:10;;;;;;;9.00;6.40;;;;;;;;;;4993154;28;20447;-71
2021/06/10 10:24:38;;;;;;;7.67;6.87;;;;;;;;;;4991502;28;20425;-71
2021/06/10 10:27:05;;;;;;;7.80;6.97;;;;;;;;;;4989636;28;20463;-71
2021/06/10 10:29:31;;;;;;;8.77;7.00;;;;;;;;;;4993355;28;20425;-70
2021/06/10 10:31:57;;;;;;;9.00;6.40;;;;;;;;;;4994103;28;20413;-70
2021/06/10 10:34:23;;;;;;;6.93;6.23;;;;;;;;;;4993035;28;20424;-68
2021/06/10 10:36:49;;;;;;;5.80;5.23;;;;;;;;;;4994830;28;20453;-72
2021/06/10 10:39:15;;;;;;;5.43;4.93;;;;;;;;;;4995028;28;20496;-68
2021/06/10 10:41:47;;;;;;;8.80;6.10;;;;;;;;;;4994138;28;20421;-68
2021/06/10 10:44:25;;;;;;;7.43;6.20;;;;;;;;;;4994963;28;20428;-68
2021/06/10 10:47:01;;;;;;;6.00;4.63;;;;;;;;;;4993545;28;20561;-70
2021/06/10 10:49:29;;;;;;;6.17;5.00;;;;;;;;;;4992589;28;20432;-67
2021/06/10 10:51:55;;;;;;;6.27;5.67;;;;;;;;;;4994318;28;20826;-68
2021/06/10 10:54:30;;;;;;;7.83;5.50;;;;;;;;;;4995378;28;20401;-68
2021/06/10 10:56:56;;;;;;;17.70;5.67;;;;;;;;;;4992811;28;20419;-69
2021/06/10 10:59:23;;;;;;;8.00;6.40;;;;;;;;;;4993215;28;20427;-68
2021/06/10 11:02:06;;;;;;;8.50;6.67;;;;;;;;;;4993116;28;20436;-69
2021/06/10 11:04:50;;;;;;;7.10;6.30;;;;;;;;;;4983118;28;20822;-69
2021/06/10 11:07:39;;;;;;;8.33;6.60;;;;;;;;;;4991813;28;20459;-71
2021/06/10 11:10:11;;;;;;;7.00;5.90;;;;;;;;;;4990813;28;20423;-68
2021/06/10 11:12:43;;;;;;;9.90;6.20;;;;;;;;;;4992933;28;20412;-70
2021/06/10 11:15:22;;;;;;;6.90;6.20;;;;;;;;;;4993960;28;20482;-69
2021/06/10 11:17:50;;;;;;;8.33;5.60;;;;;;;;;;4985223;28;20453;-70
2021/06/10 11:20:20;;;;;;;6.67;5.90;;;;;;;;;;4994744;28;20416;-69
2021/06/10 11:22:51;;;;;;;8.10;6.07;;;;;;;;;;4999687;28;20413;-69
2021/06/10 11:25:26;;;;;;;7.03;6.07;;;;;;;;;;4994612;28;20539;-68
2021/06/10 11:27:56;;;;;;;10.30;6.73;;;;;;;;;;4992309;28;20420;-68
2021/06/10 11:30:22;;;;;;;6.03;5.43;;;;;;;;;;4993062;28;20425;-66
2021/06/10 11:32:59;;;;;;;7.93;5.60;;;;;;;;;;4990572;28;20517;-68
2021/06/10 11:35:40;;;;;;;8.70;6.23;;;;;;;;;;4985763;28;20459;-67
2021/06/10 11:38:21;;;;;;;9.43;6.23;;;;;;;;;;4988987;28;20450;-67
2021/06/10 11:41:08;;;;;;;7.77;6.97;;;;;;;;;;4990394;28;20516;-68
2021/06/10 11:43:36;;;;;;;7.23;6.53;;;;;;;;;;4988915;28;20437;-68
2021/06/10 11:46:04;;;;;;;6.60;6.00;;;;;;;;;;4992681;28;21047;-68
2021/06/10 11:48:33;;;;;;;7.67;6.27;;;;;;;;;;4987367;28;20503;-68
2021/06/10 11:50:59;;;;;;;7.27;6.57;;;;;;;;;;4990988;28;20417;-70
2021/06/10 11:53:28;;;;;;;8.33;6.40;;;;;;;;;;4991659;28;20481;-70
2021/06/10 11:55:57;;;;;;;6.67;5.97;;;;;;;;;;4993137;28;20460;-68
2021/06/10 11:58:26;;;;;;;7.37;5.97;;;;;;;;;;4991835;28;20421;-68
2021/06/10 12:00:53;;;;;;;7.20;6.07;;;;;;;;;;4990434;28;20931;-70
2021/06/10 12:03:20;;;;;;;6.13;5.53;;;;;;;;;;4993679;28;20436;-70
2021/06/10 12:05:46;;;;;;;7.93;6.83;;;;;;;;;;4993266;28;20996;-70
2021/06/10 12:08:14;;;;;;;6.80;5.70;;;;;;;;;;4991887;28;20428;-70
2021/06/10 12:10:40;;;;;;;7.33;6.60;;;;;;;;;;4993397;28;20755;-69
2021/06/10 12:13:07;;;;;;;8.47;5.90;;;;;;;;;;4994335;28;20469;-70
2021/06/10 12:15:39;;;;;;;7.00;6.30;;;;;;;;;;4994214;28;20450;-71
2021/06/10 12:18:05;;;;;;;8.20;5.60;;;;;;;;;;4993543;28;20409;-70
2021/06/10 12:20:32;;;;;;;5.63;4.63;;;;;;;;;;4993600;28;20424;-70
2021/06/10 12:22:59;;;;;;;7.20;5.70;;;;;;;;;;4991983;28;20475;-69
2021/06/10 12:25:27;;;;;;;10.93;6.53;;;;;;;;;;4986733;28;20810;-67
2021/06/10 12:27:57;;;;;;;7.00;5.73;;;;;;;;;;4991537;28;20499;-67
2021/06/10 12:30:30;;;;;;;7.10;5.47;;;;;;;;;;4993581;28;20435;-67
2021/06/10 12:33:11;;;;;;;6.70;5.70;;;;;;;;;;4990565;28;20424;-69
2021/06/10 12:35:38;;;;;;;6.37;5.30;;;;;;;;;;4992549;28;20442;-67
2021/06/10 12:38:04;;;;;;;7.67;5.30;;;;;;;;;;4991027;28;20455;-67
2021/06/10 12:40:37;;;;;;;6.07;5.47;;;;;;;;;;4992770;28;20438;-68
2021/06/10 12:43:07;;;;;;;7.30;6.10;;;;;;;;;;4989859;28;20505;-66
2021/06/10 12:45:34;;;;;;;7.30;5.00;;;;;;;;;;4992357;28;20432;-65
2021/06/10 12:48:00;;;;;;;8.70;5.37;;;;;;;;;;4989482;28;21008;-65
2021/06/10 12:50:27;;;;;;;4.80;4.30;;;;;;;;;;4989621;28;20428;-65
2021/06/10 12:52:53;;;;;;;5.83;5.23;;;;;;;;;;4988392;28;20912;-68
2021/06/10 12:55:27;;;;;;;6.23;5.43;;;;;;;;;;4990549;28;20476;-68
2021/06/10 12:57:57;;;;;;;6.03;4.67;;;;;;;;;;4983335;28;20429;-67
2021/06/10 13:00:30;;;;;;;5.40;4.90;;;;;;;;;;4991703;28;20428;-68
2021/06/10 13:03:03;;;;;;;7.87;5.73;;;;;;;;;;5007780;28;20432;-69
2021/06/10 13:05:29;;;;;;;6.43;4.80;;;;;;;;;;4990136;28;20471;-73
2021/06/10 13:07:58;;;;;;;5.30;4.80;;;;;;;;;;4985809;28;20983;-69
2021/06/10 13:10:36;;;;;;;5.93;5.40;;;;;;;;;;4978961;28;20753;-69
2021/06/10 13:13:03;;;;;;;5.67;5.07;;;;;;;;;;4987754;28;20424;-69
2021/06/10 13:15:33;;;;;;;6.00;5.40;;;;;;;;;;4990121;28;20988;-68
2021/06/10 13:18:10;;;;;;;6.70;5.30;;;;;;;;;;4989322;28;20429;-68
2021/06/10 13:20:48;;;;;;;5.90;5.30;;;;;;;;;;4990385;28;20415;-67
2021/06/10 13:23:19;;;;;;;5.40;4.90;;;;;;;;;;4987459;28;20522;-68
2021/06/10 13:25:46;;;;;;;5.43;4.87;;;;;;;;;;4991600;28;20484;-71
2021/06/10 13:28:12;;;;;;;4.80;4.40;;;;;;;;;;4989530;28;20518;-71
2021/06/10 13:30:38;;;;;;;5.87;4.60;;;;;;;;;;4990399;28;20458;-71
2021/06/10 13:33:04;;;;;;;5.10;4.37;;;;;;;;;;4990674;28;21193;-68
2021/06/10 13:35:33;;;;;;;6.60;4.80;;;;;;;;;;4992092;28;20502;-67
2021/06/10 13:37:59;;;;;;;5.40;4.90;;;;;;;;;;4984718;28;20448;-69
2021/06/10 13:40:25;;;;;;;4.57;3.90;;;;;;;;;;4992721;28;20499;-69
2021/06/10 13:42:52;;;;;;;6.43;4.80;;;;;;;;;;4991920;28;20487;-68
2021/06/10 13:45:19;;;;;;;5.47;4.90;;;;;;;;;;4993758;28;20436;-68
2021/06/10 13:47:45;;;;;;;6.57;4.83;;;;;;;;;;4991336;28;20468;-69
2021/06/10 13:50:13;;;;;;;8.83;4.43;;;;;;;;;;4991469;28;20456;-68
2021/06/10 13:52:39;;;;;;;5.00;4.50;;;;;;;;;;4987635;28;20431;-67
2021/06/10 13:55:06;;;;;;;6.20;4.80;;;;;;;;;;4991212;28;20462;-68
2021/06/10 13:57:32;;;;;;;6.20;4.03;;;;;;;;;;4992921;28;20437;-67
2021/06/10 13:59:58;;;;;;;5.03;4.50;;;;;;;;;;4995820;28;20416;-67
2021/06/10 14:02:24;;;;;;;4.63;4.20;;;;;;;;;;4993963;28;20424;-69
2021/06/10 14:04:50;;;;;;;4.80;4.20;;;;;;;;;;4992681;28;20440;-67
2021/06/10 14:07:16;;;;;;;5.70;4.80;;;;;;;;;;4992162;28;20522;-67
2021/06/10 14:09:43;;;;;;;5.93;4.20;;;;;;;;;;4995062;28;20446;-68
2021/06/10 14:12:10;;;;;;;7.30;4.60;;;;;;;;;;4994668;28;20439;-70
2021/06/10 14:14:36;;;;;;;4.67;4.27;;;;;;;;;;4995488;28;20832;-69
2021/06/10 14:17:02;;;;;;;4.77;4.30;;;;;;;;;;4993920;28;20421;-69
2021/06/10 14:19:28;;;;;;;5.87;4.50;;;;;;;;;;4993554;28;20439;-68
2021/06/10 14:21:54;;;;;;;4.53;4.13;;;;;;;;;;4994002;28;20432;-72
2021/06/10 14:24:20;;;;;;;5.23;4.73;;;;;;;;;;4992831;28;20436;-71
2021/06/10 14:26:46;;;;;;;10.40;4.10;;;;;;;;;;4993623;28;20995;-72
2021/06/10 14:29:26;;;;;;;5.00;4.37;;;;;;;;;;4994855;28;20551;-74
2021/06/10 14:34:19;;;;;;;4.32;3.92;;;;;;;;;;4993428;28;20425;-69
2021/06/10 14:36:46;;;;;;;4.63;4.13;;;;;;;;;;4995177;28;20550;-68
2021/06/10 14:39:13;;;;;;;5.00;3.20;;;;;;;;;;4992290;28;20428;-72
2021/06/10 14:41:39;;;;;;;4.17;3.77;;;;;;;;;;4992134;28;20515;-70
2021/06/10 14:44:05;;;;;;;4.10;3.70;;;;;;;;;;4992393;28;20427;-69
2021/06/10 14:46:31;;;;;;;4.73;4.20;;;;;;;;;;4994804;28;20447;-68
2021/06/10 14:48:57;;;;;;;4.33;3.80;;;;;;;;;;4987226;28;20952;-70
2021/06/10 14:51:23;;;;;;;4.30;3.90;;;;;;;;;;4992289;28;21032;-69
2021/06/10 14:53:49;;;;;;;4.07;3.67;;;;;;;;;;4988044;28;20420;-70
2021/06/10 14:56:15;;;;;;;5.63;3.60;;;;;;;;;;4980012;28;20432;-71
2021/06/10 14:58:41;;;;;;;4.50;4.10;;;;;;;;;;4985177;28;20204;-71
2021/06/10 15:01:07;;;;;;;4.20;3.73;;;;;;;;;;4990678;28;20437;-71
2021/06/10 15:03:33;;;;;;;6.50;4.30;;;;;;;;;;4992575;28;20424;-69
2021/06/10 15:05:59;;;;;;;4.73;4.13;;;;;;;;;;4992748;28;20859;-70
2021/06/10 15:08:26;;;;;;;4.90;4.40;;;;;;;;;;4990527;28;20421;-71
2021/06/10 15:10:52;;;;;;;5.53;3.90;;;;;;;;;;4991575;28;20796;-68
2021/06/10 15:13:18;;;;;;;4.27;3.73;;;;;;;;;;4991599;28;20458;-71